sensor_id;sensor_type;location;lat;lon;timestamp;pressure;altitude;pressure_sealevel;temperature;humidity
34241;BME280;20503;50.200;19.508;2023-04-02T08:04:52;100960.13;;;4.76;100.00
34241;BME280;20503;50.200;19.508;2023-04-02T08:10:00;100969.91;;;4.53;100.00
34241;BME280;20503;50.200;19.508;2023-04-02T08:15:12;100982.33;;;4.22;100.00
34241;BME280;20503;50.200;19.508;2023-04-02T08:20:20;100986.53;;;4.16;100.00
34241;BME280;20503;50.200;19.508;2023-04-02T08:25:23;100995.88;;;4.22;100.00
34241;BME280;20503;50.200;19.508;2023-04-02T08:30:31;100997.25;;;4.26;100.00
34241;BME280;20503;50.200;19.508;2023-04-02T08:35:39;101004.36;;;4.27;100.00
34241;BME280;20503;50.200;19.508;2023-04-02T08:40:50;101012.20;;;4.38;100.00
34241;BME280;20503;50.200;19.508;2023-04-02T08:46:04;101019.60;;;4.28;100.00
34241;BME280;20503;50.200;19.508;2023-04-02T08:51:23;101008.76;;;4.28;100.00
34241;BME280;20503;50.200;19.508;2023-04-02T08:56:28;101025.40;;;4.33;100.00
34241;BME280;20503;50.200;19.508;2023-04-02T09:01:39;101031.57;;;4.51;100.00
34241;BME280;20503;50.200;19.508;2023-04-02T09:06:43;101029.95;;;4.32;100.00
34241;BME280;20503;50.200;19.508;2023-04-02T09:11:55;101042.08;;;4.54;100.00
34241;BME280;20503;50.200;19.508;2023-04-02T09:17:13;101047.43;;;4.38;100.00
34241;BME280;20503;50.200;19.508;2023-04-02T09:22:24;101032.16;;;4.29;100.00
34241;BME280;20503;50.200;19.508;2023-04-02T09:27:29;101075.27;;;4.56;100.00
34241;BME280;20503;50.200;19.508;2023-04-02T09:37:47;101084.48;;;4.63;100.00
34241;BME280;20503;50.200;19.508;2023-04-02T09:43:07;101092.89;;;4.52;100.00
34241;BME280;20503;50.200;19.508;2023-04-02T09:48:18;101099.06;;;4.70;100.00
34241;BME280;20503;50.200;19.508;2023-04-02T09:53:27;101111.71;;;4.53;100.00
34241;BME280;20503;50.200;19.508;2023-04-02T09:58:30;101126.55;;;4.41;100.00
34241;BME280;20503;50.200;19.508;2023-04-02T10:03:31;101123.52;;;4.19;100.00
34241;BME280;20503;50.200;19.508;2023-04-02T10:08:35;101144.61;;;4.33;100.00
34241;BME280;20503;50.200;19.508;2023-04-02T10:18:58;101159.84;;;4.08;100.00
34241;BME280;20503;50.200;19.508;2023-04-02T10:24:00;101163.72;;;4.31;100.00
34241;BME280;20503;50.200;19.508;2023-04-02T10:29:18;101168.34;;;4.39;100.00
34241;BME280;20503;50.200;19.508;2023-04-02T10:34:26;101169.61;;;4.27;100.00
34241;BME280;20503;50.200;19.508;2023-04-02T10:39:40;101183.75;;;4.13;100.00
34241;BME280;20503;50.200;19.508;2023-04-02T10:45:38;101192.28;;;4.26;100.00
34241;BME280;20503;50.200;19.508;2023-04-02T10:55:24;101214.95;;;4.42;100.00
34241;BME280;20503;50.200;19.508;2023-04-02T11:00:33;101214.95;;;4.42;100.00
34241;BME280;20503;50.200;19.508;2023-04-02T11:05:48;101217.01;;;4.48;100.00
34241;BME280;20503;50.200;19.508;2023-04-02T11:16:05;101229.51;;;4.41;100.00
34241;BME280;20503;50.200;19.508;2023-04-02T11:31:37;101249.09;;;4.35;100.00
34241;BME280;20503;50.200;19.508;2023-04-02T11:41:59;101237.34;;;4.27;100.00
34241;BME280;20503;50.200;19.508;2023-04-02T11:57:37;101282.35;;;4.63;100.00
34241;BME280;20503;50.200;19.508;2023-04-02T12:18:22;101284.89;;;4.90;100.00
34241;BME280;20503;50.200;19.508;2023-04-02T12:23:28;101310.98;;;4.65;100.00
34241;BME280;20503;50.200;19.508;2023-04-02T12:28:34;101296.91;;;4.62;100.00
34241;BME280;20503;50.200;19.508;2023-04-02T12:33:39;101299.44;;;4.81;100.00
34241;BME280;20503;50.200;19.508;2023-04-02T12:38:47;101313.60;;;5.00;100.00
34241;BME280;20503;50.200;19.508;2023-04-02T12:54:18;101320.33;;;4.88;100.00
34241;BME280;20503;50.200;19.508;2023-04-02T12:59:28;101326.27;;;4.92;100.00
34241;BME280;20503;50.200;19.508;2023-04-02T13:04:30;101333.39;;;4.93;100.00
34241;BME280;20503;50.200;19.508;2023-04-02T13:09:34;101343.82;;;4.80;100.00
34241;BME280;20503;50.200;19.508;2023-04-02T13:14:40;101351.88;;;4.72;100.00
34241;BME280;20503;50.200;19.508;2023-04-02T13:19:41;101352.06;;;4.53;100.00
34241;BME280;20503;50.200;19.508;2023-04-02T13:24:42;101360.56;;;4.58;100.00
34241;BME280;20503;50.200;19.508;2023-04-02T13:29:44;101372.90;;;4.35;100.00
34241;BME280;20503;50.200;19.508;2023-04-02T13:34:47;101373.97;;;4.42;100.00
34241;BME280;20503;50.200;19.508;2023-04-02T13:39:51;101357.09;;;4.30;100.00
34241;BME280;20503;50.200;19.508;2023-04-02T13:44:54;101382.24;;;4.23;100.00
34241;BME280;20503;50.200;19.508;2023-04-02T13:49:56;101387.66;;;4.23;100.00
34241;BME280;20503;50.200;19.508;2023-04-02T13:54:57;101395.72;;;4.15;100.00
34241;BME280;20503;50.200;19.508;2023-04-02T14:00:02;101398.63;;;4.04;100.00
34241;BME280;20503;50.200;19.508;2023-04-02T14:05:16;101400.27;;;4.14;100.00
34241;BME280;20503;50.200;19.508;2023-04-02T14:26:23;101421.74;;;3.98;100.00
34241;BME280;20503;50.200;19.508;2023-04-02T14:31:26;101426.95;;;3.82;100.00
34241;BME280;20503;50.200;19.508;2023-04-02T14:47:12;101438.97;;;3.70;100.00
34241;BME280;20503;50.200;19.508;2023-04-02T14:52:20;101447.42;;;3.58;100.00
34241;BME280;20503;50.200;19.508;2023-04-02T14:57:34;101459.22;;;3.66;100.00
34241;BME280;20503;50.200;19.508;2023-04-02T15:02:48;101457.84;;;3.53;100.00
34241;BME280;20503;50.200;19.508;2023-04-02T15:07:55;101435.94;;;3.47;100.00
34241;BME280;20503;50.200;19.508;2023-04-02T15:13:03;101468.95;;;3.60;100.00
34241;BME280;20503;50.200;19.508;2023-04-02T15:18:14;101468.77;;;3.61;100.00
34241;BME280;20503;50.200;19.508;2023-04-02T15:23:22;101484.31;;;3.59;100.00
34241;BME280;20503;50.200;19.508;2023-04-02T15:28:39;101492.70;;;3.65;100.00
34241;BME280;20503;50.200;19.508;2023-04-02T15:33:44;101499.96;;;3.74;100.00
34241;BME280;20503;50.200;19.508;2023-04-02T15:39:02;101504.28;;;3.49;100.00
34241;BME280;20503;50.200;19.508;2023-04-02T15:44:09;101503.01;;;3.43;100.00
34241;BME280;20503;50.200;19.508;2023-04-02T15:49:23;101512.82;;;3.44;100.00
34241;BME280;20503;50.200;19.508;2023-04-02T15:59:53;101525.91;;;3.58;100.00
34241;BME280;20503;50.200;19.508;2023-04-02T16:10:25;101543.85;;;3.59;100.00
34241;BME280;20503;50.200;19.508;2023-04-02T16:15:33;101554.56;;;3.51;100.00
34241;BME280;20503;50.200;19.508;2023-04-02T16:20:48;101557.70;;;3.47;100.00
34241;BME280;20503;50.200;19.508;2023-04-02T16:26:00;101565.53;;;3.40;100.00
34241;BME280;20503;50.200;19.508;2023-04-02T16:42:03;101589.30;;;3.27;100.00
34241;BME280;20503;50.200;19.508;2023-04-02T16:52:18;101600.82;;;3.10;100.00
34241;BME280;20503;50.200;19.508;2023-04-02T16:57:29;101610.10;;;3.17;100.00
34241;BME280;20503;50.200;19.508;2023-04-02T17:18:19;101633.16;;;3.21;100.00
34241;BME280;20503;50.200;19.508;2023-04-02T17:23:22;101638.13;;;3.07;100.00
34241;BME280;20503;50.200;19.508;2023-04-02T17:28:26;101642.95;;;3.03;100.00
34241;BME280;20503;50.200;19.508;2023-04-02T17:33:38;101647.78;;;3.00;100.00
34241;BME280;20503;50.200;19.508;2023-04-02T17:39:00;101662.59;;;3.05;100.00
34241;BME280;20503;50.200;19.508;2023-04-02T17:44:05;101676.39;;;3.02;100.00
34241;BME280;20503;50.200;19.508;2023-04-02T17:49:18;101675.97;;;2.97;100.00
34241;BME280;20503;50.200;19.508;2023-04-02T18:05:22;101683.98;;;2.78;100.00
34241;BME280;20503;50.200;19.508;2023-04-02T18:10:43;101695.27;;;2.83;100.00
34241;BME280;20503;50.200;19.508;2023-04-02T18:27:02;101709.80;;;2.92;100.00
34241;BME280;20503;50.200;19.508;2023-04-02T18:52:15;101726.15;;;2.90;100.00
34241;BME280;20503;50.200;19.508;2023-04-02T19:02:41;101737.13;;;2.89;100.00
34241;BME280;20503;50.200;19.508;2023-04-02T19:07:44;101736.53;;;2.85;100.00
34241;BME280;20503;50.200;19.508;2023-04-02T19:12:48;101747.95;;;2.89;100.00
34241;BME280;20503;50.200;19.508;2023-04-02T19:38:58;101762.38;;;2.78;100.00
34241;BME280;20503;50.200;19.508;2023-04-02T19:44:00;101761.09;;;2.73;100.00
34241;BME280;20503;50.200;19.508;2023-04-02T19:49:10;101771.89;;;2.73;100.00
34241;BME280;20503;50.200;19.508;2023-04-02T19:54:12;101770.86;;;2.64;100.00
34241;BME280;20503;50.200;19.508;2023-04-02T19:59:14;101772.09;;;2.60;100.00
34241;BME280;20503;50.200;19.508;2023-04-02T20:04:15;101778.21;;;2.62;100.00
34241;BME280;20503;50.200;19.508;2023-04-02T20:09:16;101775.12;;;2.67;100.00
34241;BME280;20503;50.200;19.508;2023-04-02T20:14:18;101775.27;;;2.65;100.00
34241;BME280;20503;50.200;19.508;2023-04-02T20:19:19;101781.19;;;2.59;100.00
34241;BME280;20503;50.200;19.508;2023-04-02T20:24:21;101782.45;;;2.55;100.00
34241;BME280;20503;50.200;19.508;2023-04-02T20:29:22;101791.82;;;2.51;100.00
34241;BME280;20503;50.200;19.508;2023-04-02T20:34:30;101798.48;;;2.47;100.00
34241;BME280;20503;50.200;19.508;2023-04-02T20:39:32;101800.91;;;2.50;100.00
34241;BME280;20503;50.200;19.508;2023-04-02T20:44:33;101815.08;;;2.43;100.00
34241;BME280;20503;50.200;19.508;2023-04-02T20:49:35;101821.15;;;2.56;100.00
34241;BME280;20503;50.200;19.508;2023-04-02T20:54:38;101826.67;;;2.54;100.00
34241;BME280;20503;50.200;19.508;2023-04-02T20:59:40;101822.04;;;2.45;100.00
34241;BME280;20503;50.200;19.508;2023-04-02T21:04:42;101838.05;;;2.37;100.00
34241;BME280;20503;50.200;19.508;2023-04-02T21:09:45;101825.59;;;2.25;100.00
34241;BME280;20503;50.200;19.508;2023-04-02T21:14:48;101829.27;;;2.24;100.00
34241;BME280;20503;50.200;19.508;2023-04-02T21:19:58;101829.59;;;2.10;100.00
